sensor_id;sensor_type;location;lat;lon;timestamp;P1;durP1;ratioP1;P2;durP2;ratioP2
12222;SDS011;6174;49.058;8.524;2022-12-07T05:00:18;11.07;;;9.57;;
12222;SDS011;6174;49.058;8.524;2022-12-07T05:02:45;10.50;;;9.40;;
12222;SDS011;6174;49.058;8.524;2022-12-07T05:05:12;11.37;;;9.60;;
12222;SDS011;6174;49.058;8.524;2022-12-07T05:07:38;11.23;;;10.13;;
12222;SDS011;6174;49.058;8.524;2022-12-07T05:10:05;10.90;;;9.80;;
12222;SDS011;6174;49.058;8.524;2022-12-07T05:12:33;10.57;;;9.57;;
12222;SDS011;6174;49.058;8.524;2022-12-07T05:15:00;10.63;;;9.53;;
12222;SDS011;6174;49.058;8.524;2022-12-07T05:17:28;9.90;;;8.90;;
12222;SDS011;6174;49.058;8.524;2022-12-07T05:19:54;10.33;;;9.23;;
12222;SDS011;6174;49.058;8.524;2022-12-07T05:22:21;11.20;;;10.17;;
12222;SDS011;6174;49.058;8.524;2022-12-07T05:24:50;10.07;;;9.07;;
12222;SDS011;6174;49.058;8.524;2022-12-07T05:27:17;9.80;;;8.80;;
12222;SDS011;6174;49.058;8.524;2022-12-07T05:29:44;10.67;;;9.50;;
12222;SDS011;6174;49.058;8.524;2022-12-07T05:32:11;9.93;;;8.93;;
12222;SDS011;6174;49.058;8.524;2022-12-07T05:34:39;11.03;;;9.80;;
12222;SDS011;6174;49.058;8.524;2022-12-07T05:37:05;11.20;;;10.10;;
12222;SDS011;6174;49.058;8.524;2022-12-07T05:39:32;20.97;;;17.27;;
12222;SDS011;6174;49.058;8.524;2022-12-07T05:41:59;17.00;;;12.77;;
12222;SDS011;6174;49.058;8.524;2022-12-07T05:44:37;14.37;;;11.60;;
12222;SDS011;6174;49.058;8.524;2022-12-07T05:47:04;12.30;;;10.67;;
12222;SDS011;6174;49.058;8.524;2022-12-07T05:49:31;11.47;;;10.27;;
12222;SDS011;6174;49.058;8.524;2022-12-07T05:51:59;10.67;;;9.57;;
12222;SDS011;6174;49.058;8.524;2022-12-07T05:54:26;11.67;;;10.50;;
12222;SDS011;6174;49.058;8.524;2022-12-07T05:56:53;10.63;;;9.53;;
12222;SDS011;6174;49.058;8.524;2022-12-07T05:59:20;10.83;;;9.73;;
12222;SDS011;6174;49.058;8.524;2022-12-07T06:01:49;12.33;;;11.07;;
12222;SDS011;6174;49.058;8.524;2022-12-07T06:04:16;11.50;;;10.30;;
12222;SDS011;6174;49.058;8.524;2022-12-07T06:06:44;10.87;;;9.77;;
12222;SDS011;6174;49.058;8.524;2022-12-07T06:09:12;10.93;;;9.83;;
12222;SDS011;6174;49.058;8.524;2022-12-07T06:11:39;10.07;;;9.07;;
12222;SDS011;6174;49.058;8.524;2022-12-07T06:14:23;11.37;;;9.90;;
12222;SDS011;6174;49.058;8.524;2022-12-07T06:16:50;10.73;;;9.63;;
12222;SDS011;6174;49.058;8.524;2022-12-07T06:19:17;10.10;;;9.07;;
12222;SDS011;6174;49.058;8.524;2022-12-07T06:21:44;11.87;;;10.13;;
12222;SDS011;6174;49.058;8.524;2022-12-07T06:24:13;11.13;;;9.37;;
12222;SDS011;6174;49.058;8.524;2022-12-07T06:26:40;10.23;;;9.23;;
12222;SDS011;6174;49.058;8.524;2022-12-07T06:29:08;10.33;;;9.33;;
12222;SDS011;6174;49.058;8.524;2022-12-07T06:31:35;10.20;;;9.20;;
12222;SDS011;6174;49.058;8.524;2022-12-07T06:34:03;10.97;;;9.87;;
12222;SDS011;6174;49.058;8.524;2022-12-07T06:36:32;9.63;;;8.30;;
12222;SDS011;6174;49.058;8.524;2022-12-07T06:38:59;10.43;;;9.33;;
12222;SDS011;6174;49.058;8.524;2022-12-07T06:41:27;9.70;;;8.77;;
12222;SDS011;6174;49.058;8.524;2022-12-07T06:43:54;10.23;;;9.20;;
12222;SDS011;6174;49.058;8.524;2022-12-07T06:46:21;10.53;;;9.47;;
12222;SDS011;6174;49.058;8.524;2022-12-07T06:48:48;10.50;;;9.37;;
12222;SDS011;6174;49.058;8.524;2022-12-07T06:51:15;9.63;;;8.63;;
12222;SDS011;6174;49.058;8.524;2022-12-07T06:53:42;10.90;;;9.50;;
12222;SDS011;6174;49.058;8.524;2022-12-07T06:56:08;9.60;;;8.60;;
12222;SDS011;6174;49.058;8.524;2022-12-07T06:58:37;10.10;;;9.10;;
12222;SDS011;6174;49.058;8.524;2022-12-07T07:01:08;9.97;;;8.97;;
12222;SDS011;6174;49.058;8.524;2022-12-07T07:03:35;10.00;;;8.90;;
12222;SDS011;6174;49.058;8.524;2022-12-07T07:06:02;11.57;;;8.80;;
12222;SDS011;6174;49.058;8.524;2022-12-07T07:08:29;10.50;;;9.27;;
12222;SDS011;6174;49.058;8.524;2022-12-07T07:10:55;10.37;;;9.37;;
12222;SDS011;6174;49.058;8.524;2022-12-07T07:13:22;9.87;;;8.83;;
12222;SDS011;6174;49.058;8.524;2022-12-07T07:15:50;10.07;;;8.70;;
12222;SDS011;6174;49.058;8.524;2022-12-07T07:18:17;10.17;;;9.07;;
12222;SDS011;6174;49.058;8.524;2022-12-07T07:20:44;9.87;;;8.40;;
12222;SDS011;6174;49.058;8.524;2022-12-07T07:23:11;10.00;;;8.93;;
12222;SDS011;6174;49.058;8.524;2022-12-07T07:25:38;10.53;;;8.70;;
12222;SDS011;6174;49.058;8.524;2022-12-07T07:28:05;9.77;;;8.83;;
12222;SDS011;6174;49.058;8.524;2022-12-07T07:30:32;8.60;;;7.80;;
12222;SDS011;6174;49.058;8.524;2022-12-07T07:33:00;9.37;;;8.37;;
12222;SDS011;6174;49.058;8.524;2022-12-07T07:35:29;9.77;;;8.50;;
12222;SDS011;6174;49.058;8.524;2022-12-07T07:37:57;10.83;;;9.73;;
12222;SDS011;6174;49.058;8.524;2022-12-07T07:40:27;11.00;;;8.70;;
12222;SDS011;6174;49.058;8.524;2022-12-07T07:42:55;9.83;;;8.67;;
12222;SDS011;6174;49.058;8.524;2022-12-07T07:45:22;10.87;;;9.10;;
12222;SDS011;6174;49.058;8.524;2022-12-07T07:47:51;10.23;;;9.17;;
12222;SDS011;6174;49.058;8.524;2022-12-07T07:50:19;9.40;;;8.33;;
12222;SDS011;6174;49.058;8.524;2022-12-07T07:52:46;8.70;;;7.37;;
12222;SDS011;6174;49.058;8.524;2022-12-07T07:55:13;8.97;;;8.07;;
12222;SDS011;6174;49.058;8.524;2022-12-07T07:57:40;7.97;;;7.17;;
12222;SDS011;6174;49.058;8.524;2022-12-07T08:00:08;9.87;;;8.67;;
12222;SDS011;6174;49.058;8.524;2022-12-07T08:02:37;9.93;;;8.63;;
12222;SDS011;6174;49.058;8.524;2022-12-07T08:05:05;9.40;;;8.50;;
12222;SDS011;6174;49.058;8.524;2022-12-07T08:07:34;9.73;;;8.10;;
12222;SDS011;6174;49.058;8.524;2022-12-07T08:10:00;9.23;;;8.27;;
12222;SDS011;6174;49.058;8.524;2022-12-07T08:12:27;9.03;;;8.13;;
12222;SDS011;6174;49.058;8.524;2022-12-07T08:14:54;9.17;;;8.13;;
12222;SDS011;6174;49.058;8.524;2022-12-07T08:17:21;8.83;;;7.93;;
12222;SDS011;6174;49.058;8.524;2022-12-07T08:19:48;9.47;;;7.57;;
12222;SDS011;6174;49.058;8.524;2022-12-07T08:22:14;9.63;;;8.27;;
12222;SDS011;6174;49.058;8.524;2022-12-07T08:24:43;8.40;;;7.60;;
12222;SDS011;6174;49.058;8.524;2022-12-07T08:27:09;8.13;;;7.33;;
12222;SDS011;6174;49.058;8.524;2022-12-07T08:29:36;9.00;;;8.10;;
12222;SDS011;6174;49.058;8.524;2022-12-07T08:32:03;11.80;;;8.07;;
12222;SDS011;6174;49.058;8.524;2022-12-07T08:34:30;9.07;;;8.17;;
12222;SDS011;6174;49.058;8.524;2022-12-07T08:36:57;8.50;;;7.70;;
12222;SDS011;6174;49.058;8.524;2022-12-07T08:39:23;8.80;;;7.63;;
12222;SDS011;6174;49.058;8.524;2022-12-07T08:41:51;9.00;;;8.10;;
12222;SDS011;6174;49.058;8.524;2022-12-07T08:44:18;8.63;;;7.73;;
12222;SDS011;6174;49.058;8.524;2022-12-07T08:46:45;8.47;;;7.27;;
12222;SDS011;6174;49.058;8.524;2022-12-07T08:49:15;9.50;;;7.77;;
12222;SDS011;6174;49.058;8.524;2022-12-07T08:51:44;8.20;;;7.30;;
12222;SDS011;6174;49.058;8.524;2022-12-07T08:54:12;7.93;;;7.13;;
12222;SDS011;6174;49.058;8.524;2022-12-07T08:56:42;8.50;;;7.60;;
12222;SDS011;6174;49.058;8.524;2022-12-07T08:59:11;8.67;;;7.80;;
12222;SDS011;6174;49.058;8.524;2022-12-07T09:01:40;7.67;;;6.70;;
12222;SDS011;6174;49.058;8.524;2022-12-07T09:04:06;9.00;;;8.10;;
12222;SDS011;6174;49.058;8.524;2022-12-07T09:06:33;8.33;;;7.47;;
12222;SDS011;6174;49.058;8.524;2022-12-07T09:09:01;9.03;;;8.13;;
12222;SDS011;6174;49.058;8.524;2022-12-07T09:11:29;7.80;;;7.00;;
12222;SDS011;6174;49.058;8.524;2022-12-07T09:13:56;9.17;;;7.63;;
12222;SDS011;6174;49.058;8.524;2022-12-07T09:16:24;9.50;;;7.87;;
12222;SDS011;6174;49.058;8.524;2022-12-07T09:18:51;10.67;;;8.67;;
12222;SDS011;6174;49.058;8.524;2022-12-07T09:21:17;10.87;;;9.17;;
12222;SDS011;6174;49.058;8.524;2022-12-07T09:23:44;7.80;;;7.00;;
12222;SDS011;6174;49.058;8.524;2022-12-07T09:26:11;9.30;;;7.17;;
12222;SDS011;6174;49.058;8.524;2022-12-07T09:28:38;8.00;;;7.20;;
12222;SDS011;6174;49.058;8.524;2022-12-07T09:31:05;8.23;;;7.37;;
12222;SDS011;6174;49.058;8.524;2022-12-07T09:33:33;8.43;;;7.23;;
12222;SDS011;6174;49.058;8.524;2022-12-07T09:36:00;9.37;;;7.37;;
12222;SDS011;6174;49.058;8.524;2022-12-07T09:38:27;8.30;;;7.50;;
12222;SDS011;6174;49.058;8.524;2022-12-07T09:40:55;8.67;;;7.77;;
12222;SDS011;6174;49.058;8.524;2022-12-07T09:43:22;10.10;;;8.33;;
12222;SDS011;6174;49.058;8.524;2022-12-07T09:45:51;9.37;;;7.93;;
12222;SDS011;6174;49.058;8.524;2022-12-07T09:48:20;10.33;;;7.80;;
12222;SDS011;6174;49.058;8.524;2022-12-07T09:50:50;9.00;;;7.50;;
12222;SDS011;6174;49.058;8.524;2022-12-07T09:53:23;8.07;;;7.23;;
12222;SDS011;6174;49.058;8.524;2022-12-07T09:55:52;8.53;;;7.63;;
12222;SDS011;6174;49.058;8.524;2022-12-07T09:58:20;9.03;;;7.60;;
12222;SDS011;6174;49.058;8.524;2022-12-07T10:00:49;6.83;;;5.60;;
12222;SDS011;6174;49.058;8.524;2022-12-07T10:03:19;8.43;;;7.47;;
12222;SDS011;6174;49.058;8.524;2022-12-07T10:05:47;8.07;;;7.00;;
12222;SDS011;6174;49.058;8.524;2022-12-07T10:08:17;7.47;;;6.77;;
12222;SDS011;6174;49.058;8.524;2022-12-07T10:10:44;8.10;;;7.30;;
12222;SDS011;6174;49.058;8.524;2022-12-07T10:13:13;8.37;;;7.57;;
12222;SDS011;6174;49.058;8.524;2022-12-07T10:15:45;8.70;;;7.60;;
12222;SDS011;6174;49.058;8.524;2022-12-07T10:18:16;8.23;;;7.07;;
12222;SDS011;6174;49.058;8.524;2022-12-07T10:21:00;8.60;;;7.70;;
12222;SDS011;6174;49.058;8.524;2022-12-07T10:23:39;8.40;;;7.50;;
12222;SDS011;6174;49.058;8.524;2022-12-07T10:26:19;8.33;;;7.40;;
12222;SDS011;6174;49.058;8.524;2022-12-07T10:28:53;9.20;;;7.60;;
12222;SDS011;6174;49.058;8.524;2022-12-07T10:31:21;9.27;;;7.60;;
12222;SDS011;6174;49.058;8.524;2022-12-07T10:33:49;9.63;;;7.30;;
12222;SDS011;6174;49.058;8.524;2022-12-07T10:36:21;9.07;;;8.13;;
12222;SDS011;6174;49.058;8.524;2022-12-07T10:38:51;7.87;;;7.07;;
12222;SDS011;6174;49.058;8.524;2022-12-07T10:41:19;7.90;;;7.10;;
12222;SDS011;6174;49.058;8.524;2022-12-07T10:43:46;12.50;;;6.97;;
12222;SDS011;6174;49.058;8.524;2022-12-07T10:46:21;8.40;;;7.50;;
12222;SDS011;6174;49.058;8.524;2022-12-07T10:49:05;7.97;;;7.03;;
12222;SDS011;6174;49.058;8.524;2022-12-07T10:51:49;8.37;;;7.03;;
12222;SDS011;6174;49.058;8.524;2022-12-07T10:54:22;8.40;;;7.47;;
12222;SDS011;6174;49.058;8.524;2022-12-07T10:57:03;7.93;;;7.13;;
12222;SDS011;6174;49.058;8.524;2022-12-07T10:59:50;8.70;;;7.80;;
12222;SDS011;6174;49.058;8.524;2022-12-07T11:02:26;8.53;;;7.57;;
12222;SDS011;6174;49.058;8.524;2022-12-07T11:05:10;8.73;;;7.70;;
12222;SDS011;6174;49.058;8.524;2022-12-07T11:07:47;8.67;;;7.77;;
12222;SDS011;6174;49.058;8.524;2022-12-07T11:10:22;9.40;;;7.70;;
12222;SDS011;6174;49.058;8.524;2022-12-07T11:13:00;9.23;;;7.90;;
12222;SDS011;6174;49.058;8.524;2022-12-07T11:15:45;9.10;;;7.33;;
12222;SDS011;6174;49.058;8.524;2022-12-07T11:18:43;9.33;;;6.60;;
12222;SDS011;6174;49.058;8.524;2022-12-07T11:21:19;7.07;;;6.10;;
12222;SDS011;6174;49.058;8.524;2022-12-07T11:23:56;8.47;;;7.00;;
12222;SDS011;6174;49.058;8.524;2022-12-07T11:26:34;9.47;;;7.73;;
12222;SDS011;6174;49.058;8.524;2022-12-07T11:29:27;10.37;;;8.33;;
12222;SDS011;6174;49.058;8.524;2022-12-07T11:32:26;10.30;;;7.80;;
12222;SDS011;6174;49.058;8.524;2022-12-07T11:35:08;10.13;;;8.00;;
12222;SDS011;6174;49.058;8.524;2022-12-07T11:37:45;8.70;;;7.87;;
12222;SDS011;6174;49.058;8.524;2022-12-07T11:40:15;8.57;;;7.63;;
12222;SDS011;6174;49.058;8.524;2022-12-07T11:42:47;8.80;;;7.90;;
12222;SDS011;6174;49.058;8.524;2022-12-07T11:45:19;9.40;;;8.40;;
12222;SDS011;6174;49.058;8.524;2022-12-07T11:47:53;9.10;;;8.13;;
12222;SDS011;6174;49.058;8.524;2022-12-07T11:50:26;9.73;;;8.03;;
12222;SDS011;6174;49.058;8.524;2022-12-07T11:52:57;9.53;;;8.20;;
12222;SDS011;6174;49.058;8.524;2022-12-07T11:55:29;8.73;;;7.93;;
12222;SDS011;6174;49.058;8.524;2022-12-07T11:58:04;8.67;;;7.80;;
12222;SDS011;6174;49.058;8.524;2022-12-07T12:00:40;9.83;;;7.83;;
12222;SDS011;6174;49.058;8.524;2022-12-07T12:03:09;9.70;;;8.70;;
12222;SDS011;6174;49.058;8.524;2022-12-07T12:05:42;12.43;;;9.87;;
12222;SDS011;6174;49.058;8.524;2022-12-07T12:08:12;9.40;;;8.33;;
12222;SDS011;6174;49.058;8.524;2022-12-07T12:10:45;9.43;;;8.53;;
12222;SDS011;6174;49.058;8.524;2022-12-07T12:13:30;11.07;;;8.87;;
12222;SDS011;6174;49.058;8.524;2022-12-07T12:16:18;11.20;;;8.20;;
12222;SDS011;6174;49.058;8.524;2022-12-07T12:21:54;8.90;;;7.77;;
12222;SDS011;6174;49.058;8.524;2022-12-07T12:24:25;9.70;;;8.50;;
12222;SDS011;6174;49.058;8.524;2022-12-07T12:26:58;9.80;;;8.80;;
12222;SDS011;6174;49.058;8.524;2022-12-07T12:29:31;10.27;;;9.13;;
12222;SDS011;6174;49.058;8.524;2022-12-07T12:32:07;9.97;;;8.27;;
12222;SDS011;6174;49.058;8.524;2022-12-07T12:34:41;8.73;;;7.90;;
12222;SDS011;6174;49.058;8.524;2022-12-07T12:55:25;11.43;;;9.57;;
12222;SDS011;6174;49.058;8.524;2022-12-07T12:58:21;9.90;;;8.90;;
12222;SDS011;6174;49.058;8.524;2022-12-07T13:04:17;10.60;;;9.50;;
12222;SDS011;6174;49.058;8.524;2022-12-07T13:06:50;11.50;;;8.83;;
12222;SDS011;6174;49.058;8.524;2022-12-07T13:09:21;9.20;;;8.30;;
12222;SDS011;6174;49.058;8.524;2022-12-07T13:11:55;10.20;;;8.73;;
12222;SDS011;6174;49.058;8.524;2022-12-07T13:14:43;9.73;;;8.50;;
12222;SDS011;6174;49.058;8.524;2022-12-07T13:23:12;11.27;;;9.60;;
12222;SDS011;6174;49.058;8.524;2022-12-07T13:25:44;10.37;;;8.70;;
12222;SDS011;6174;49.058;8.524;2022-12-07T13:28:15;11.20;;;9.63;;
12222;SDS011;6174;49.058;8.524;2022-12-07T13:33:37;10.40;;;9.30;;
12222;SDS011;6174;49.058;8.524;2022-12-07T13:36:04;10.67;;;9.13;;
12222;SDS011;6174;49.058;8.524;2022-12-07T13:38:39;9.73;;;8.67;;
12222;SDS011;6174;49.058;8.524;2022-12-07T13:41:16;12.13;;;9.17;;
12222;SDS011;6174;49.058;8.524;2022-12-07T13:43:45;9.83;;;8.83;;
12222;SDS011;6174;49.058;8.524;2022-12-07T13:46:15;10.27;;;8.83;;
12222;SDS011;6174;49.058;8.524;2022-12-07T13:48:48;10.47;;;8.73;;
12222;SDS011;6174;49.058;8.524;2022-12-07T13:51:18;10.37;;;9.17;;
12222;SDS011;6174;49.058;8.524;2022-12-07T13:53:47;10.63;;;8.70;;
12222;SDS011;6174;49.058;8.524;2022-12-07T13:56:15;10.13;;;9.13;;
12222;SDS011;6174;49.058;8.524;2022-12-07T13:58:42;11.70;;;9.47;;
12222;SDS011;6174;49.058;8.524;2022-12-07T14:01:09;10.20;;;8.43;;
12222;SDS011;6174;49.058;8.524;2022-12-07T14:03:38;12.07;;;8.77;;
12222;SDS011;6174;49.058;8.524;2022-12-07T14:06:21;12.83;;;10.13;;
12222;SDS011;6174;49.058;8.524;2022-12-07T14:09:06;11.63;;;9.07;;
12222;SDS011;6174;49.058;8.524;2022-12-07T14:11:33;10.73;;;8.90;;
12222;SDS011;6174;49.058;8.524;2022-12-07T14:14:01;9.20;;;7.87;;
12222;SDS011;6174;49.058;8.524;2022-12-07T14:16:29;11.17;;;9.60;;
12222;SDS011;6174;49.058;8.524;2022-12-07T14:18:57;10.03;;;8.87;;
12222;SDS011;6174;49.058;8.524;2022-12-07T14:21:27;10.73;;;9.63;;
12222;SDS011;6174;49.058;8.524;2022-12-07T14:24:02;11.27;;;9.37;;
12222;SDS011;6174;49.058;8.524;2022-12-07T14:26:40;10.80;;;9.13;;
12222;SDS011;6174;49.058;8.524;2022-12-07T14:32:17;9.87;;;8.43;;
12222;SDS011;6174;49.058;8.524;2022-12-07T14:34:57;10.00;;;8.03;;
12222;SDS011;6174;49.058;8.524;2022-12-07T14:37:28;8.87;;;8.00;;
12222;SDS011;6174;49.058;8.524;2022-12-07T14:39:56;9.70;;;8.00;;
12222;SDS011;6174;49.058;8.524;2022-12-07T14:42:24;9.37;;;8.10;;
12222;SDS011;6174;49.058;8.524;2022-12-07T14:44:54;9.90;;;8.53;;
12222;SDS011;6174;49.058;8.524;2022-12-07T14:47:21;10.23;;;7.70;;
12222;SDS011;6174;49.058;8.524;2022-12-07T14:49:48;10.17;;;8.07;;
12222;SDS011;6174;49.058;8.524;2022-12-07T14:52:15;9.40;;;8.50;;
12222;SDS011;6174;49.058;8.524;2022-12-07T14:54:46;9.20;;;7.67;;
12222;SDS011;6174;49.058;8.524;2022-12-07T14:57:12;8.07;;;7.27;;
12222;SDS011;6174;49.058;8.524;2022-12-07T14:59:39;8.57;;;7.67;;
12222;SDS011;6174;49.058;8.524;2022-12-07T15:02:08;9.33;;;8.40;;
12222;SDS011;6174;49.058;8.524;2022-12-07T15:04:36;8.43;;;7.17;;
12222;SDS011;6174;49.058;8.524;2022-12-07T15:07:03;7.60;;;6.83;;
12222;SDS011;6174;49.058;8.524;2022-12-07T15:09:32;8.00;;;7.20;;
12222;SDS011;6174;49.058;8.524;2022-12-07T15:12:00;8.50;;;6.93;;
12222;SDS011;6174;49.058;8.524;2022-12-07T15:14:27;8.73;;;7.17;;
12222;SDS011;6174;49.058;8.524;2022-12-07T15:16:54;8.50;;;7.10;;
12222;SDS011;6174;49.058;8.524;2022-12-07T15:19:22;8.50;;;7.60;;
12222;SDS011;6174;49.058;8.524;2022-12-07T15:21:51;8.90;;;8.00;;
12222;SDS011;6174;49.058;8.524;2022-12-07T15:24:18;8.03;;;6.97;;
12222;SDS011;6174;49.058;8.524;2022-12-07T15:26:46;9.57;;;7.87;;
12222;SDS011;6174;49.058;8.524;2022-12-07T15:29:14;8.40;;;7.50;;
12222;SDS011;6174;49.058;8.524;2022-12-07T15:31:42;8.60;;;7.53;;
12222;SDS011;6174;49.058;8.524;2022-12-07T15:34:08;9.60;;;7.57;;
12222;SDS011;6174;49.058;8.524;2022-12-07T15:36:35;9.53;;;8.27;;
12222;SDS011;6174;49.058;8.524;2022-12-07T15:39:02;8.80;;;7.90;;
12222;SDS011;6174;49.058;8.524;2022-12-07T15:41:29;8.43;;;7.53;;
12222;SDS011;6174;49.058;8.524;2022-12-07T15:43:56;9.33;;;8.43;;
12222;SDS011;6174;49.058;8.524;2022-12-07T15:46:42;9.57;;;8.60;;
12222;SDS011;6174;49.058;8.524;2022-12-07T15:49:10;9.57;;;8.20;;
12222;SDS011;6174;49.058;8.524;2022-12-07T15:51:39;8.53;;;7.70;;
12222;SDS011;6174;49.058;8.524;2022-12-07T15:54:06;8.67;;;7.77;;
12222;SDS011;6174;49.058;8.524;2022-12-07T15:56:34;8.63;;;7.60;;
12222;SDS011;6174;49.058;8.524;2022-12-07T15:59:01;9.03;;;8.13;;
12222;SDS011;6174;49.058;8.524;2022-12-07T16:01:28;8.67;;;7.77;;
12222;SDS011;6174;49.058;8.524;2022-12-07T16:03:56;8.40;;;7.57;;
12222;SDS011;6174;49.058;8.524;2022-12-07T16:06:24;8.50;;;7.63;;
12222;SDS011;6174;49.058;8.524;2022-12-07T16:08:50;8.00;;;7.30;;
12222;SDS011;6174;49.058;8.524;2022-12-07T16:11:17;9.90;;;8.20;;
12222;SDS011;6174;49.058;8.524;2022-12-07T16:13:44;10.33;;;8.80;;
12222;SDS011;6174;49.058;8.524;2022-12-07T16:16:11;8.30;;;7.47;;
12222;SDS011;6174;49.058;8.524;2022-12-07T16:18:41;8.00;;;7.20;;
12222;SDS011;6174;49.058;8.524;2022-12-07T16:21:10;8.53;;;7.70;;
12222;SDS011;6174;49.058;8.524;2022-12-07T16:23:37;8.53;;;7.60;;
12222;SDS011;6174;49.058;8.524;2022-12-07T16:26:04;8.20;;;7.40;;
12222;SDS011;6174;49.058;8.524;2022-12-07T16:28:32;10.00;;;7.07;;
12222;SDS011;6174;49.058;8.524;2022-12-07T16:31:05;10.23;;;9.07;;
12222;SDS011;6174;49.058;8.524;2022-12-07T16:33:34;8.37;;;7.57;;
12222;SDS011;6174;49.058;8.524;2022-12-07T16:36:02;14.37;;;9.60;;
12222;SDS011;6174;49.058;8.524;2022-12-07T16:38:31;9.83;;;8.83;;
12222;SDS011;6174;49.058;8.524;2022-12-07T16:40:58;9.17;;;8.23;;
12222;SDS011;6174;49.058;8.524;2022-12-07T16:43:25;9.03;;;8.13;;
12222;SDS011;6174;49.058;8.524;2022-12-07T16:45:52;9.27;;;8.27;;
12222;SDS011;6174;49.058;8.524;2022-12-07T16:48:19;9.67;;;8.67;;
12222;SDS011;6174;49.058;8.524;2022-12-07T16:50:46;11.40;;;10.23;;
12222;SDS011;6174;49.058;8.524;2022-12-07T16:53:13;10.80;;;9.50;;
12222;SDS011;6174;49.058;8.524;2022-12-07T16:55:42;12.03;;;10.73;;
12222;SDS011;6174;49.058;8.524;2022-12-07T16:58:10;10.47;;;8.90;;
12222;SDS011;6174;49.058;8.524;2022-12-07T17:00:38;9.63;;;8.63;;
12222;SDS011;6174;49.058;8.524;2022-12-07T17:03:05;10.70;;;9.00;;
12222;SDS011;6174;49.058;8.524;2022-12-07T17:05:32;10.83;;;9.17;;
12222;SDS011;6174;49.058;8.524;2022-12-07T17:07:59;10.00;;;8.60;;
12222;SDS011;6174;49.058;8.524;2022-12-07T17:10:27;9.80;;;8.80;;
12222;SDS011;6174;49.058;8.524;2022-12-07T17:12:55;10.90;;;9.30;;
12222;SDS011;6174;49.058;8.524;2022-12-07T17:15:22;9.87;;;8.20;;
12222;SDS011;6174;49.058;8.524;2022-12-07T17:17:51;11.37;;;8.70;;
12222;SDS011;6174;49.058;8.524;2022-12-07T17:20:19;10.37;;;8.27;;
12222;SDS011;6174;49.058;8.524;2022-12-07T17:22:46;9.57;;;8.53;;
12222;SDS011;6174;49.058;8.524;2022-12-07T17:25:14;11.10;;;9.37;;
12222;SDS011;6174;49.058;8.524;2022-12-07T17:27:41;9.70;;;8.70;;
12222;SDS011;6174;49.058;8.524;2022-12-07T17:30:10;12.10;;;9.03;;
12222;SDS011;6174;49.058;8.524;2022-12-07T17:32:38;10.80;;;9.03;;
12222;SDS011;6174;49.058;8.524;2022-12-07T17:35:05;11.93;;;8.87;;
12222;SDS011;6174;49.058;8.524;2022-12-07T17:37:33;10.53;;;9.43;;
12222;SDS011;6174;49.058;8.524;2022-12-07T17:39:59;11.73;;;9.87;;
12222;SDS011;6174;49.058;8.524;2022-12-07T17:42:26;16.00;;;13.90;;
12222;SDS011;6174;49.058;8.524;2022-12-07T17:45:04;16.07;;;12.67;;
12222;SDS011;6174;49.058;8.524;2022-12-07T17:47:33;13.80;;;10.80;;
12222;SDS011;6174;49.058;8.524;2022-12-07T17:50:01;13.30;;;10.60;;
12222;SDS011;6174;49.058;8.524;2022-12-07T17:52:27;10.83;;;9.70;;
12222;SDS011;6174;49.058;8.524;2022-12-07T17:55:08;10.60;;;8.90;;
12222;SDS011;6174;49.058;8.524;2022-12-07T17:57:35;10.27;;;8.97;;
12222;SDS011;6174;49.058;8.524;2022-12-07T18:00:02;10.97;;;9.87;;
12222;SDS011;6174;49.058;8.524;2022-12-07T18:02:30;13.90;;;10.87;;
12222;SDS011;6174;49.058;8.524;2022-12-07T18:04:58;12.03;;;10.77;;
12222;SDS011;6174;49.058;8.524;2022-12-07T18:07:25;14.50;;;11.70;;
12222;SDS011;6174;49.058;8.524;2022-12-07T18:09:52;16.23;;;12.63;;
12222;SDS011;6174;49.058;8.524;2022-12-07T18:12:18;15.87;;;11.77;;
12222;SDS011;6174;49.058;8.524;2022-12-07T18:14:45;14.43;;;12.13;;
12222;SDS011;6174;49.058;8.524;2022-12-07T18:17:13;13.80;;;11.40;;
12222;SDS011;6174;49.058;8.524;2022-12-07T18:19:39;13.67;;;12.17;;
12222;SDS011;6174;49.058;8.524;2022-12-07T18:22:07;11.60;;;10.40;;
12222;SDS011;6174;49.058;8.524;2022-12-07T18:24:34;13.43;;;11.70;;
12222;SDS011;6174;49.058;8.524;2022-12-07T18:27:02;12.73;;;11.37;;
12222;SDS011;6174;49.058;8.524;2022-12-07T18:29:29;13.43;;;11.60;;
12222;SDS011;6174;49.058;8.524;2022-12-07T18:31:56;11.83;;;10.50;;
12222;SDS011;6174;49.058;8.524;2022-12-07T18:34:22;12.80;;;10.60;;
12222;SDS011;6174;49.058;8.524;2022-12-07T18:36:52;13.57;;;11.30;;
12222;SDS011;6174;49.058;8.524;2022-12-07T18:39:20;14.33;;;11.77;;
12222;SDS011;6174;49.058;8.524;2022-12-07T18:41:47;14.60;;;12.00;;
12222;SDS011;6174;49.058;8.524;2022-12-07T18:44:14;13.87;;;12.27;;
12222;SDS011;6174;49.058;8.524;2022-12-07T18:46:41;15.20;;;12.10;;
12222;SDS011;6174;49.058;8.524;2022-12-07T18:49:08;16.60;;;12.43;;
12222;SDS011;6174;49.058;8.524;2022-12-07T18:51:37;13.50;;;11.10;;
12222;SDS011;6174;49.058;8.524;2022-12-07T18:54:04;17.67;;;12.47;;
12222;SDS011;6174;49.058;8.524;2022-12-07T18:56:33;15.80;;;12.33;;
12222;SDS011;6174;49.058;8.524;2022-12-07T18:59:01;15.33;;;12.23;;
12222;SDS011;6174;49.058;8.524;2022-12-07T19:01:47;11.70;;;10.50;;
12222;SDS011;6174;49.058;8.524;2022-12-07T19:04:15;12.50;;;11.17;;
12222;SDS011;6174;49.058;8.524;2022-12-07T19:06:43;12.03;;;10.53;;
12222;SDS011;6174;49.058;8.524;2022-12-07T19:09:11;13.37;;;11.03;;
12222;SDS011;6174;49.058;8.524;2022-12-07T19:11:39;12.90;;;11.40;;
12222;SDS011;6174;49.058;8.524;2022-12-07T19:14:17;11.93;;;10.63;;
12222;SDS011;6174;49.058;8.524;2022-12-07T19:16:46;12.67;;;11.20;;
12222;SDS011;6174;49.058;8.524;2022-12-07T19:19:14;14.50;;;11.67;;
12222;SDS011;6174;49.058;8.524;2022-12-07T19:21:42;15.57;;;12.00;;
12222;SDS011;6174;49.058;8.524;2022-12-07T19:24:09;14.23;;;12.23;;
12222;SDS011;6174;49.058;8.524;2022-12-07T19:26:36;13.30;;;11.23;;
12222;SDS011;6174;49.058;8.524;2022-12-07T19:29:05;16.57;;;12.57;;
12222;SDS011;6174;49.058;8.524;2022-12-07T19:31:32;16.67;;;12.67;;
12222;SDS011;6174;49.058;8.524;2022-12-07T19:34:00;14.90;;;13.30;;
12222;SDS011;6174;49.058;8.524;2022-12-07T19:36:27;16.43;;;14.53;;
12222;SDS011;6174;49.058;8.524;2022-12-07T19:38:54;13.77;;;12.00;;
12222;SDS011;6174;49.058;8.524;2022-12-07T19:41:20;15.17;;;12.77;;
12222;SDS011;6174;49.058;8.524;2022-12-07T19:43:59;15.37;;;13.67;;
12222;SDS011;6174;49.058;8.524;2022-12-07T19:46:30;16.23;;;14.53;;
12222;SDS011;6174;49.058;8.524;2022-12-07T19:48:57;15.13;;;13.63;;
12222;SDS011;6174;49.058;8.524;2022-12-07T19:51:25;15.33;;;13.10;;
12222;SDS011;6174;49.058;8.524;2022-12-07T19:53:53;15.67;;;12.77;;
12222;SDS011;6174;49.058;8.524;2022-12-07T19:56:22;14.20;;;12.73;;
12222;SDS011;6174;49.058;8.524;2022-12-07T19:58:50;17.27;;;13.17;;
12222;SDS011;6174;49.058;8.524;2022-12-07T20:01:17;15.43;;;12.70;;
12222;SDS011;6174;49.058;8.524;2022-12-07T20:03:45;15.70;;;12.77;;
12222;SDS011;6174;49.058;8.524;2022-12-07T20:06:13;16.33;;;14.37;;
12222;SDS011;6174;49.058;8.524;2022-12-07T20:08:43;16.23;;;13.40;;
12222;SDS011;6174;49.058;8.524;2022-12-07T20:11:10;15.40;;;13.40;;
12222;SDS011;6174;49.058;8.524;2022-12-07T20:13:55;15.83;;;13.07;;
12222;SDS011;6174;49.058;8.524;2022-12-07T20:16:22;16.87;;;13.80;;
12222;SDS011;6174;49.058;8.524;2022-12-07T20:18:51;15.93;;;12.93;;
12222;SDS011;6174;49.058;8.524;2022-12-07T20:21:18;15.17;;;13.57;;
12222;SDS011;6174;49.058;8.524;2022-12-07T20:23:45;22.97;;;19.00;;
12222;SDS011;6174;49.058;8.524;2022-12-07T20:26:12;18.97;;;16.60;;
12222;SDS011;6174;49.058;8.524;2022-12-07T20:28:39;22.03;;;16.87;;
12222;SDS011;6174;49.058;8.524;2022-12-07T20:31:10;18.13;;;15.77;;
12222;SDS011;6174;49.058;8.524;2022-12-07T20:33:37;17.80;;;14.77;;
12222;SDS011;6174;49.058;8.524;2022-12-07T20:36:06;18.13;;;15.33;;
12222;SDS011;6174;49.058;8.524;2022-12-07T20:38:34;19.73;;;15.57;;
12222;SDS011;6174;49.058;8.524;2022-12-07T20:41:01;19.40;;;14.73;;